Latest Coastal Weather Observations for Portland Airport

IDS60701

Issued at 10:11 am CDT Friday 19 December 2014 (issued every 10 minutes, with the page automatically refreshed every 10 minutes)

About coastal observations | Map of coastal stations | Coastal observations for SA | Marine services | Other Formats
Station Details ID: 090171 Name: CASHMORE AIRPORT Lat: -38.31 Lon: 141.47 Height: 80.9 m
Data from the previous 72 hours. | See also: Recent months at Portland Airport
Date/Time
CDT
Temp

°C
Wind Pressure Rain
since 9am
mm
Weather Cloud Vis
km
Sea
Height
m
Swell
Dir
 
Speed
knots
Gust
knots
hPa Trend Height
m
Period
s
Dir
19/10:00am 15.7 WSW 10 14 1019.1 - 0.0 - Partly cloudy - - - - -
19/09:30am 15.4 SW 10 16 1018.8 - 0.0 - Partly cloudy - - - - -
19/09:00am 14.4 SW 10 15 1018.8 - 0.0 - Partly cloudy - - - - -
19/08:30am 14.3 WSW 9 12 1018.2 - 4.6 - Cloudy - - - - -
19/08:00am 14.1 SW 9 13 1017.9 - 4.6 - Partly cloudy - - - - -
19/07:30am 14.0 SW 8 11 1017.6 - 4.6 - Partly cloudy - - - - -
19/07:00am 13.4 SW 6 9 1017.3 - 4.6 - Partly cloudy - - - - -
19/06:30am 11.8 SW 7 8 1016.9 - 4.6 - Partly cloudy - - - - -
19/06:00am 11.7 SW 7 9 1016.4 - 4.6 - Partly cloudy - - - - -
19/05:30am 10.9 SW 7 9 1016.2 - 4.6 - Mostly clear - - - - -
19/05:00am 10.8 SW 6 8 1015.9 - 4.6 - - - - - - -
19/04:30am 11.5 SW 7 9 1015.7 - 4.6 - Cloudy - - - - -
19/04:00am 11.3 SW 7 9 1015.7 - 4.6 - Partly cloudy - - - - -
19/03:30am 11.5 SW 7 10 1015.5 - 4.6 - Partly cloudy - - - - -
19/03:00am 11.1 SW 7 10 1015.3 - 4.6 - Partly cloudy - - - - -
19/02:30am 11.4 WSW 7 9 1015.2 - 4.6 - - - - - - -
19/02:00am 11.8 SW 8 11 1015.2 - 4.6 - Partly cloudy - - - - -
19/01:30am 11.6 WSW 7 10 1015.3 - 4.6 - Partly cloudy - - - - -
19/01:00am 11.4 WSW 8 10 1015.3 - 4.6 - Partly cloudy - - - - -
19/12:30am 12.0 SW 11 15 1015.3 - 4.6 - Partly cloudy - - - - -
19/12:00am 12.6 SW 10 14 1015.1 - 4.6 - Partly cloudy - - - - -
 
Date/Time
CDT
Temp

°C
Wind Pressure Rain
since 9am
mm
Weather Cloud Vis
km
Sea
Height
m
Swell
Dir
 
Speed
knots
Gust
knots
hPa Trend Height
m
Period
s
Dir
18/11:30pm 12.2 WSW 9 13 1015.0 - 4.6 - Mostly clear - - - - -
18/11:00pm 12.1 SW 8 12 1014.8 - 4.6 - - - - - - -
18/10:30pm 12.4 SW 9 13 1014.8 - 4.6 - Partly cloudy - - - - -
18/10:00pm 13.3 WSW 9 13 1014.6 - 4.6 - Partly cloudy - - - - -
18/09:30pm 13.2 WSW 8 11 1014.2 - 4.6 - Partly cloudy - - - - -
18/09:00pm 13.0 SW 8 11 1013.9 - 4.6 - Partly cloudy - - - - -
18/08:30pm 13.4 SW 10 15 1013.7 - 4.6 - Cloudy - - - - -
18/08:00pm 13.9 SW 9 13 1013.5 - 4.6 - Partly cloudy - - - - -
18/07:30pm 14.6 WSW 13 17 1012.9 - 4.6 - Partly cloudy - - - - -
18/07:00pm 15.0 WSW 15 21 1012.5 - 4.6 - - - - - - -
18/06:30pm 15.6 WSW 14 20 1012.0 - 4.6 - - - - - - -
18/06:00pm 15.6 WSW 16 24 1011.3 - 4.6 - Partly cloudy - - - - -
18/05:30pm 15.5 WSW 14 19 1011.0 - 4.6 - Cloudy - - - - -
18/05:00pm 16.7 WSW 18 23 1010.7 - 4.6 - Partly cloudy - - - - -
18/04:30pm 16.8 WSW 18 24 1010.4 - 4.6 - - - - - - -
18/04:00pm 16.5 WSW 18 24 1010.0 - 4.6 - Partly cloudy - - - - -
18/03:30pm 16.6 WSW 19 27 1009.4 - 4.6 - - - - - - -
18/03:00pm 15.3 W 14 25 1009.1 - 4.6 - Partly cloudy - - - - -
18/02:50pm 15.2 WSW 18 31 1008.9 - 4.4 - Partly cloudy - - - - -
18/02:30pm 17.1 W 18 24 1008.6 - 4.2 - Partly cloudy - - - - -
18/02:00pm 16.0 WSW 15 20 1008.5 - 4.2 - Partly cloudy - - - - -
18/01:30pm 13.2 WSW 15 22 1008.4 - 4.2 - Partly cloudy - - - - -
18/01:11pm 16.5 W 18 29 1007.7 - 3.6 - Partly cloudy - - - - -
18/01:00pm 17.4 W 19 25 1007.5 - 3.6 - Partly cloudy - - - - -
18/12:30pm 17.1 W 16 21 1007.2 - 3.6 - Partly cloudy - - - - -
18/12:00pm 16.5 W 13 19 1007.1 - 3.6 - Partly cloudy - - - - -
18/11:30am 15.3 W 12 15 1006.7 - 3.6 Recent precip. Cloudy - - - - -
18/11:00am 12.4 WSW 12 16 1006.7 - 3.6 - Partly cloudy - - - - -
18/10:46am 13.2 W 15 27 1006.7 - 3.2 - Partly cloudy - - - - -
18/10:30am 13.1 W 16 23 1006.2 - 2.8 - Partly cloudy - - - - -
18/10:08am 17.6 WNW 21 31 1005.6 - 0.0 - Partly cloudy - - - - -
18/10:00am 17.6 WNW 20 29 1005.5 - 0.0 - Partly cloudy - - - - -
18/09:32am 16.4 NW 15 25 1005.6 - 0.0 - Partly cloudy - - - - -
18/09:30am 16.1 NW 14 24 1005.6 - 0.0 - Partly cloudy - - - - -
18/09:00am 15.6 NW 15 21 1005.9 - 0.0 - Partly cloudy - - - - -
18/08:30am 14.7 NW 14 22 1005.7 - 0.0 - Cloudy - - - - -
18/08:00am 13.9 NW 10 16 1005.4 - 0.0 - Partly cloudy - - - - -
18/07:30am 13.6 NW 12 17 1005.3 - 0.0 - Partly cloudy - - - - -
18/07:00am 12.3 NNW 9 12 1005.2 - 0.0 - Partly cloudy - - - - -
18/06:30am 9.3 N 6 8 1005.2 - 0.0 - - - - - - -
18/06:00am 7.8 N 6 8 1005.0 - 0.0 - - - - - - -
18/05:30am 7.5 N 5 7 1005.0 - 0.0 - - - - - - -
18/05:00am 8.2 N 6 8 1004.7 - 0.0 - - - - - - -
18/04:30am 8.7 N 6 8 1004.8 - 0.0 - Partly cloudy - - - - -
18/04:00am 8.5 N 5 7 1004.9 - 0.0 - - - - - - -
18/03:30am 9.0 N 6 7 1005.1 - 0.0 - - - - - - -
18/03:00am 9.6 N 6 9 1005.4 - 0.0 - Partly cloudy - - - - -
18/02:30am 9.3 NNW 5 7 1005.9 - 0.0 - Cloudy - - - - -
18/02:00am 8.7 N 5 7 1006.0 - 0.0 - Partly cloudy - - - - -
18/01:30am 8.4 N 5 7 1006.3 - 0.0 - Partly cloudy - - - - -
18/01:00am 8.8 N 5 7 1006.7 - 0.0 - - - - - - -
18/12:30am 9.5 N 6 7 1007.0 - 0.0 - - - - - - -
18/12:00am 9.6 N 6 7 1007.0 - 0.0 - - - - - - -
 
Date/Time
CDT
Temp

°C
Wind Pressure Rain
since 9am
mm
Weather Cloud Vis
km
Sea
Height
m
Swell
Dir
 
Speed
knots
Gust
knots
hPa Trend Height
m
Period
s
Dir
17/11:30pm 9.5 N 6 7 1007.1 - 0.0 - - - - - - -
17/11:00pm 10.2 N 7 8 1007.0 - 0.0 - - - - - - -
17/10:30pm 10.7 NNW 5 7 1007.3 - 0.0 - - - - - - -
17/10:00pm 11.3 WNW 4 5 1007.5 - 0.0 - - - - - - -
17/09:30pm 11.5 WNW 6 7 1007.7 - 0.0 - - - - - - -
17/09:00pm 12.0 W 4 5 1007.7 - 0.0 - - - - - - -
17/08:30pm 13.3 W 8 11 1007.9 - 0.0 - Mostly clear - - - - -
17/08:00pm 14.2 W 8 10 1007.9 - 0.0 - - - - - - -
17/07:30pm 15.1 W 11 15 1007.9 - 0.0 - - - - - - -
17/07:00pm 14.9 W 12 15 1007.7 - 0.0 - Partly cloudy - - - - -
17/06:30pm 16.2 W 11 16 1007.5 - 0.0 - - - - - - -
17/06:00pm 16.5 W 12 16 1007.4 - 0.0 - - - - - - -
17/05:30pm 16.8 W 12 16 1007.5 - 0.0 - - - - - - -
17/05:00pm 16.8 W 13 16 1007.8 - 0.0 - - - - - - -
17/04:30pm 17.4 W 11 17 1008.1 - 0.0 - Partly cloudy - - - - -
17/04:00pm 17.5 WSW 11 15 1008.3 - 0.0 - Partly cloudy - - - - -
17/03:30pm 17.3 WSW 13 18 1008.6 - 0.0 - Partly cloudy - - - - -
17/03:00pm 17.0 W 12 20 1008.6 - 0.0 - Partly cloudy - - - - -
17/02:30pm 17.4 W 12 18 1008.6 - 0.0 - - - - - - -
17/02:00pm 17.9 WSW 13 19 1008.9 - 0.0 - Partly cloudy - - - - -
17/01:30pm 17.7 W 14 20 1009.1 - 0.0 - Partly cloudy - - - - -
17/01:00pm 17.4 WSW 13 19 1009.1 - 0.0 - Partly cloudy - - - - -
17/12:30pm 17.3 W 12 19 1009.3 - 0.0 - - - - - - -
17/12:00pm 17.0 W 13 18 1009.4 - 0.0 - - - - - - -
17/11:30am 17.0 W 12 16 1009.4 - 0.0 - Mostly clear - - - - -
17/11:00am 16.2 WNW 11 17 1009.4 - 0.0 - Partly cloudy - - - - -
17/10:30am 15.4 W 12 18 1009.4 - 0.0 - Partly cloudy - - - - -
17/10:00am 16.3 W 10 17 1009.4 - 0.0 - Partly cloudy - - - - -
17/09:30am 14.8 W 8 13 1009.6 - 0.0 - Partly cloudy - - - - -
17/09:00am 14.7 W 10 16 1009.8 - 0.0 - Partly cloudy - - - - -
17/08:30am 15.1 W 9 15 1009.6 - 6.8 - Mostly clear - - - - -
17/08:00am 14.7 WNW 8 12 1009.4 - 6.8 - - - - - - -
17/07:30am 13.4 W 8 11 1009.1 - 6.8 - Partly cloudy - - - - -
17/07:00am 11.2 WSW 3 4 1008.8 - 6.8 - Partly cloudy - - - - -
17/06:30am 9.3 WSW 4 5 1008.4 - 6.8 - Partly cloudy - - - - -
17/06:00am 9.2 WSW 4 5 1007.8 - 6.8 - Partly cloudy - - - - -
17/05:30am 8.6 WSW 5 5 1007.5 - 6.8 - Partly cloudy - - - - -
17/05:00am 7.9 WSW 5 6 1007.1 - 6.8 - Partly cloudy - - - - -
17/04:30am 9.3 WSW 6 7 1006.8 - 6.8 - - - - - - -
17/04:00am 10.7 WSW 7 9 1006.6 - 6.8 - Partly cloudy - - - - -
17/03:30am 9.1 WSW 4 6 1006.4 - 6.8 - Partly cloudy - - - - -
17/03:00am 10.4 WSW 6 7 1006.6 - 6.8 - Partly cloudy - - - - -
17/02:30am 11.0 WSW 7 11 1006.5 - 6.8 - Mostly clear - - - - -
17/02:00am 12.2 SW 7 12 1006.5 - 6.8 - Partly cloudy - - - - -
17/01:30am 12.1 WSW 7 10 1006.5 - 6.8 - Partly cloudy - - - - -
17/01:00am 11.9 WSW 10 15 1006.6 - 6.8 - Partly cloudy - - - - -
17/12:30am 11.9 SW 9 12 1006.6 - 6.8 - - - - - - -
17/12:00am 12.6 WSW 13 18 1006.5 - 6.8 - - - - - - -
 
Date/Time
CDT
Temp

°C
Wind Pressure Rain
since 9am
mm
Weather Cloud Vis
km
Sea
Height
m
Swell
Dir
 
Speed
knots
Gust
knots
hPa Trend Height
m
Period
s
Dir
16/11:30pm 12.8 WSW 13 18 1006.3 - 6.8 - Mostly clear - - - - -
16/11:00pm 12.7 SW 12 18 1006.0 - 6.8 - Partly cloudy - - - - -
16/10:30pm 12.6 WSW 13 18 1006.0 - 6.8 - Partly cloudy - - - - -
16/10:00pm 12.8 WSW 13 19 1005.7 - 6.8 - Partly cloudy - - - - -
16/09:30pm 13.1 WSW 17 24 1005.5 - 6.8 - Partly cloudy - - - - -
16/09:00pm 13.0 WSW 15 25 1005.1 - 6.8 - Partly cloudy - - - - -
16/08:41pm 13.2 WSW 15 25 1004.6 - 6.8 - Partly cloudy - - - - -
16/08:30pm 12.7 WSW 11 15 1004.6 - 6.8 - Mostly clear - - - - -
16/08:00pm 13.4 WSW 15 21 1004.3 - 6.8 - Partly cloudy - - - - -
16/07:30pm 13.7 W 20 26 1003.8 - 6.8 - - - - - - -
16/07:00pm 14.1 WSW 19 27 1003.2 - 6.8 - Partly cloudy - - - - -
16/06:30pm 14.7 WSW 18 24 1002.6 - 6.8 - Partly cloudy - - - - -
16/06:04pm 14.4 W 22 32 1002.1 - 6.8 - Partly cloudy - - - - -
16/06:00pm 14.7 W 23 32 1001.9 - 6.8 - Partly cloudy - - - - -
16/05:43pm 16.0 W 21 31 1001.5 - 6.8 - Partly cloudy - - - - -
16/05:30pm 15.7 W 23 30 1001.0 - 6.8 - Mostly cloudy - - - - -
16/05:04pm 15.3 W 25 36 1000.6 - 6.8 - Partly cloudy - - - - -
16/05:00pm 15.6 W 25 31 1000.5 - 6.8 - Partly cloudy - - - - -
16/04:30pm 13.9 W 24 42 1000.0 - 6.8 - Partly cloudy - - - - -
16/04:00pm 17.3 W 27 38 999.4 - 6.2 - Partly cloudy - - - - -
16/03:30pm 16.8 W 26 38 998.5 - 6.2 - Partly cloudy - - - - -
16/03:00pm 16.7 W 26 40 998.0 - 6.2 - Partly cloudy - - - - -
16/02:55pm 16.3 W 24 40 997.8 - 6.2 - Partly cloudy - - - - -
16/02:36pm 15.1 W 18 29 997.6 - 6.2 - Partly cloudy - - - - -
16/02:30pm 14.3 W 18 24 997.7 - 6.2 Recent precip. Cloudy - - - - -
16/02:16pm 13.0 W 19 30 997.7 - 6.2 - Partly cloudy - - - - -
16/02:07pm 13.5 W 18 25 997.4 - 6.0 - Partly cloudy - - - - -
16/02:00pm 13.5 W 19 29 997.6 - 6.0 - Partly cloudy - - - - -
16/01:31pm 12.4 W 20 33 996.8 - 5.2 - Partly cloudy - - - - -
16/01:30pm 12.3 W 21 34 996.8 - 5.0 - Partly cloudy - - - - -
16/01:21pm 13.1 WNW 18 34 996.7 - 4.8 - Partly cloudy - - - - -
16/01:00pm 13.7 WNW 20 28 996.3 - 4.4 - Partly cloudy - - - - -
16/12:30pm 13.4 WNW 22 32 996.1 - 3.0 - Partly cloudy - - - - -
16/12:01pm 18.0 NW 15 28 995.2 - 0.0 - Partly cloudy - - - - -
16/12:00pm 18.0 NW 14 24 995.1 - 0.0 - Partly cloudy - - - - -
16/11:32am 18.3 NW 16 26 995.2 - 0.0 - Partly cloudy - - - - -
16/11:30am 18.4 NW 16 25 995.3 - 0.0 - Cloudy - - - - -
16/11:15am 18.0 NW 17 27 995.5 - 0.0 - Partly cloudy - - - - -
16/11:00am 17.9 NW 19 25 995.7 - 0.0 - Partly cloudy - - - - -
16/10:30am 17.6 NW 17 24 996.1 - 0.0 - Partly cloudy - - - - -
16/10:00am 17.6 NW 15 21 996.4 - 0.0 - - 10 - - - -

Other Formats:

Comma delimited format used in spreadsheet applications
http://www.bom.gov.au/fwo/IDS60701/IDS60701.94828.axf

JavaScript Object Notation format (JSON) in row-major order
http://www.bom.gov.au/fwo/IDS60701/IDS60701.94828.json